createdAt,value
2023-01-12T00:01:55.104Z,100469.34
2023-01-12T00:04:21.657Z,100461.88
2023-01-12T00:06:48.233Z,100453.06
2023-01-12T00:09:14.836Z,100446.22
2023-01-12T00:11:41.267Z,100434.41
2023-01-12T00:14:09.332Z,100436.91
2023-01-12T00:16:39.435Z,100431.41
2023-01-12T00:19:11.823Z,100434.66
2023-01-12T00:21:57.023Z,100434.84
2023-01-12T00:24:25.735Z,100439.44
2023-01-12T00:26:53.431Z,100439.25
2023-01-12T00:29:20.400Z,100445.69
2023-01-12T00:31:47.159Z,100443.31
2023-01-12T00:34:14.500Z,100439.13
2023-01-12T00:36:41.426Z,100439.13
2023-01-12T00:39:08.296Z,100437.34
2023-01-12T00:41:55.725Z,100429.06
2023-01-12T00:44:41.361Z,100432.56
2023-01-12T00:47:07.900Z,100434.81
2023-01-12T00:49:35.475Z,100429.00
2023-01-12T00:52:02.456Z,100448.63
2023-01-12T00:54:28.999Z,100439.22
2023-01-12T00:56:56.469Z,100437.16
2023-01-12T00:59:23.135Z,100450.91
2023-01-12T01:01:50.137Z,100437.41
2023-01-12T01:04:16.671Z,100431.78
2023-01-12T01:06:43.136Z,100433.72
2023-01-12T01:09:09.605Z,100423.88
2023-01-12T01:11:36.256Z,100431.09
2023-01-12T01:14:02.910Z,100417.63
2023-01-12T01:16:30.110Z,100417.28
2023-01-12T01:18:57.058Z,100413.13
2023-01-12T01:21:23.526Z,100413.56
2023-01-12T01:23:49.905Z,100418.38
2023-01-12T01:26:22.317Z,100400.97
2023-01-12T01:28:48.914Z,100408.44
2023-01-12T01:31:21.584Z,100400.44
2023-01-12T01:33:48.741Z,100408.13
2023-01-12T01:36:16.184Z,100403.13
2023-01-12T01:38:45.125Z,100405.53
2023-01-12T01:41:24.736Z,100416.59
2023-01-12T01:43:53.306Z,100410.22
2023-01-12T01:46:41.076Z,100408.25
2023-01-12T01:49:26.416Z,100392.44
2023-01-12T01:51:58.212Z,100390.66
2023-01-12T01:54:25.203Z,100391.78
2023-01-12T01:56:56.503Z,100391.28
2023-01-12T01:59:28.187Z,100386.78
2023-01-12T02:01:55.215Z,100378.81
2023-01-12T02:04:22.288Z,100383.31
2023-01-12T02:06:49.360Z,100385.50
2023-01-12T02:09:21.219Z,100383.19
2023-01-12T02:12:07.353Z,100375.41
2023-01-12T02:14:52.351Z,100368.06
2023-01-12T02:17:46.589Z,100368.53
2023-01-12T02:20:31.305Z,100372.16
2023-01-12T02:23:22.662Z,100363.72
2023-01-12T02:26:07.288Z,100366.91
2023-01-12T02:28:45.759Z,100374.94
2023-01-12T02:31:37.921Z,100368.56
2023-01-12T02:34:18.731Z,100375.22
2023-01-12T02:36:50.598Z,100371.69
2023-01-12T02:39:43.831Z,100363.72
2023-01-12T02:42:28.609Z,100366.97
2023-01-12T02:45:27.173Z,100374.47
2023-01-12T02:47:58.835Z,100370.78
2023-01-12T02:50:29.283Z,100361.47
2023-01-12T02:53:01.473Z,100363.50
2023-01-12T02:55:30.003Z,100359.34
2023-01-12T02:57:57.259Z,100359.22
2023-01-12T03:00:24.049Z,100350.38
2023-01-12T03:02:50.624Z,100348.19
2023-01-12T03:05:17.015Z,100354.38
2023-01-12T03:07:55.347Z,100349.22
2023-01-12T03:10:50.700Z,100344.91
2023-01-12T03:13:19.163Z,100348.44
2023-01-12T03:15:49.847Z,100343.47
2023-01-12T03:18:34.252Z,100344.59
2023-01-12T03:21:16.912Z,100340.84
2023-01-12T03:23:59.431Z,100342.00
2023-01-12T03:26:28.359Z,100345.84
2023-01-12T03:29:03.583Z,100339.25
2023-01-12T03:31:30.166Z,100336.66
2023-01-12T03:33:56.723Z,100345.84
2023-01-12T03:36:41.645Z,100343.91
2023-01-12T03:39:27.287Z,100337.78
2023-01-12T03:42:04.412Z,100341.91
2023-01-12T03:44:53.608Z,100342.47
2023-01-12T03:47:24.932Z,100341.78
2023-01-12T03:49:57.574Z,100341.38
2023-01-12T03:52:25.747Z,100330.00
2023-01-12T03:54:56.705Z,100330.56
2023-01-12T03:57:23.547Z,100321.84
2023-01-12T03:59:49.958Z,100319.59
2023-01-12T04:02:16.549Z,100323.44
2023-01-12T04:04:42.964Z,100317.75
2023-01-12T04:07:09.431Z,100318.09
2023-01-12T04:09:35.881Z,100310.16
2023-01-12T04:12:11.062Z,100309.34
2023-01-12T04:14:38.975Z,100307.09
2023-01-12T04:17:06.295Z,100300.03
2023-01-12T04:19:32.743Z,100300.50
2023-01-12T04:22:17.894Z,100296.06
2023-01-12T04:24:44.306Z,100295.19
2023-01-12T04:27:10.883Z,100291.66
2023-01-12T04:29:37.293Z,100291.78
2023-01-12T04:32:05.121Z,100289.38
2023-01-12T04:34:31.542Z,100288.25
2023-01-12T04:36:58.019Z,100287.56
2023-01-12T04:39:24.431Z,100286.56
2023-01-12T04:41:50.851Z,100291.91
2023-01-12T04:44:17.346Z,100282.56
2023-01-12T04:46:43.747Z,100284.19
2023-01-12T04:49:10.144Z,100286.56
2023-01-12T04:51:36.528Z,100281.00
2023-01-12T04:54:03.027Z,100286.09
2023-01-12T04:56:31.167Z,100283.72
2023-01-12T04:59:00.092Z,100279.84
2023-01-12T05:01:28.831Z,100275.75
2023-01-12T05:03:58.047Z,100264.53
2023-01-12T05:06:24.625Z,100272.47
2023-01-12T05:09:09.289Z,100270.19
2023-01-12T05:11:35.735Z,100277.34
2023-01-12T05:14:02.407Z,100275.66
2023-01-12T05:16:28.953Z,100281.22
2023-01-12T05:18:55.699Z,100271.47
2023-01-12T05:21:23.812Z,100273.28
2023-01-12T05:23:52.497Z,100273.03
2023-01-12T05:26:19.721Z,100273.16
2023-01-12T05:28:50.576Z,100274.53
2023-01-12T05:31:17.543Z,100276.25
2023-01-12T05:33:44.014Z,100275.31
2023-01-12T05:36:13.161Z,100268.28
2023-01-12T05:38:40.028Z,100259.41
2023-01-12T05:41:07.577Z,100265.44
2023-01-12T05:43:52.320Z,100266.09
2023-01-12T05:46:23.685Z,100266.44
2023-01-12T05:48:51.247Z,100269.28
2023-01-12T05:51:18.176Z,100263.03
2023-01-12T05:53:44.915Z,100263.72
2023-01-12T05:56:21.087Z,100258.50
2023-01-12T05:58:55.135Z,100265.00
2023-01-12T06:01:22.478Z,100257.50
2023-01-12T06:03:54.668Z,100258.72
2023-01-12T06:06:22.653Z,100249.09
2023-01-12T06:08:52.156Z,100246.03
2023-01-12T06:11:38.090Z,100241.34
2023-01-12T06:14:05.531Z,100242.94
2023-01-12T06:16:32.233Z,100251.09
2023-01-12T06:18:58.715Z,100239.38
2023-01-12T06:21:25.527Z,100247.34
2023-01-12T06:23:51.956Z,100243.03
2023-01-12T06:26:18.410Z,100243.25
2023-01-12T06:28:44.943Z,100244.38
2023-01-12T06:31:13.212Z,100240.75
2023-01-12T06:33:40.166Z,100239.38
2023-01-12T06:36:07.321Z,100235.19
2023-01-12T06:38:35.089Z,100232.59
2023-01-12T06:41:03.074Z,100229.34
2023-01-12T06:43:29.479Z,100235.31
2023-01-12T06:45:56.008Z,100234.03
2023-01-12T06:48:25.685Z,100219.97
2023-01-12T06:51:01.890Z,100220.06
2023-01-12T06:53:28.337Z,100224.16
2023-01-12T06:55:54.745Z,100222.09
2023-01-12T06:58:21.252Z,100216.22
2023-01-12T07:00:47.745Z,100213.91
2023-01-12T07:03:18.830Z,100213.25
2023-01-12T07:05:45.596Z,100216.41
2023-01-12T07:08:15.950Z,100218.09
2023-01-12T07:10:42.973Z,100213.44
2023-01-12T07:13:09.396Z,100209.50
2023-01-12T07:15:36.033Z,100205.50
2023-01-12T07:18:02.488Z,100203.91
2023-01-12T07:20:29.000Z,100203.69
2023-01-12T07:22:55.882Z,100199.34
2023-01-12T07:25:23.073Z,100195.50
2023-01-12T07:27:57.703Z,100192.22
2023-01-12T07:30:25.602Z,100199.69
2023-01-12T07:32:52.502Z,100191.16
2023-01-12T07:35:19.348Z,100185.28
2023-01-12T07:37:50.325Z,100180.72
2023-01-12T07:40:18.005Z,100179.84
2023-01-12T07:42:44.517Z,100183.09
2023-01-12T07:45:11.959Z,100178.16
2023-01-12T07:47:38.640Z,100179.94
2023-01-12T07:50:05.826Z,100171.41
2023-01-12T07:52:32.419Z,100160.56
2023-01-12T07:54:58.838Z,100157.78
2023-01-12T07:57:25.284Z,100147.78
2023-01-12T07:59:51.689Z,100147.63
2023-01-12T08:02:19.240Z,100143.22
2023-01-12T08:04:46.425Z,100133.81
2023-01-12T08:07:13.732Z,100136.19
2023-01-12T08:09:40.192Z,100125.28
2023-01-12T08:12:06.794Z,100129.00
2023-01-12T08:14:39.399Z,100131.38
2023-01-12T08:17:14.685Z,100132.41
2023-01-12T08:19:47.274Z,100122.31
2023-01-12T08:22:19.092Z,100126.59
2023-01-12T08:24:52.098Z,100128.28
2023-01-12T08:27:22.589Z,100118.19
2023-01-12T08:29:52.048Z,100108.59
2023-01-12T08:32:19.004Z,100109.41
2023-01-12T08:34:48.259Z,100111.78
2023-01-12T08:37:18.038Z,100110.16
2023-01-12T08:39:46.019Z,100106.78
2023-01-12T08:42:12.847Z,100092.84
2023-01-12T08:44:39.518Z,100093.19
2023-01-12T08:47:14.447Z,100084.34
2023-01-12T08:49:40.967Z,100062.22
2023-01-12T08:52:07.340Z,100085.16
2023-01-12T08:54:33.979Z,100073.88
2023-01-12T08:57:00.348Z,100066.38
2023-01-12T08:59:26.756Z,100081.28
2023-01-12T09:01:53.337Z,100071.22
2023-01-12T09:04:19.883Z,100065.63
2023-01-12T09:06:47.062Z,100068.25
2023-01-12T09:09:16.741Z,100056.94
2023-01-12T09:11:44.342Z,100050.75
2023-01-12T09:14:12.096Z,100044.50
2023-01-12T09:16:38.980Z,100048.09
2023-01-12T09:19:05.611Z,100052.94
2023-01-12T09:21:32.867Z,100052.16
2023-01-12T09:23:59.435Z,100045.72
2023-01-12T09:26:33.784Z,100042.81
2023-01-12T09:29:02.216Z,100039.38
2023-01-12T09:31:30.328Z,100036.19
2023-01-12T09:33:57.952Z,100031.03
2023-01-12T09:36:29.856Z,100027.47
2023-01-12T09:38:58.084Z,100030.41
2023-01-12T09:41:54.368Z,100029.06
2023-01-12T09:44:47.280Z,100009.75
2023-01-12T09:47:26.291Z,100025.41
2023-01-12T09:50:16.248Z,100020.94
2023-01-12T09:52:42.745Z,100010.78
2023-01-12T09:55:20.782Z,100005.25
2023-01-12T09:57:53.554Z,100015.47
2023-01-12T10:00:21.054Z,100018.34
2023-01-12T10:02:54.582Z,100002.41
2023-01-12T10:05:39.871Z,100000.59
2023-01-12T10:08:16.193Z,100007.31
2023-01-12T10:10:54.629Z,100007.66
2023-01-12T10:13:22.342Z,99994.78
2023-01-12T10:16:02.656Z,99983.78
2023-01-12T10:18:42.279Z,99991.19
2023-01-12T10:21:10.927Z,99990.38
2023-01-12T10:23:37.687Z,99972.50
2023-01-12T10:26:24.628Z,99967.16
2023-01-12T10:28:54.571Z,99979.34
2023-01-12T10:31:25.160Z,99981.13
2023-01-12T10:34:21.129Z,99972.63
2023-01-12T10:36:49.792Z,99958.03
2023-01-12T10:39:39.114Z,99956.03
2023-01-12T10:42:44.132Z,99974.50
2023-01-12T10:45:20.779Z,99971.78
2023-01-12T10:47:49.361Z,99951.00
2023-01-12T10:50:29.873Z,99944.81
2023-01-12T10:53:13.694Z,99951.28
2023-01-12T10:55:42.818Z,99941.13
2023-01-12T10:58:30.849Z,99946.09
2023-01-12T11:00:57.983Z,99920.25
2023-01-12T11:03:33.806Z,99928.47
2023-01-12T11:06:30.743Z,99933.44
2023-01-12T11:08:57.613Z,99933.53
2023-01-12T11:11:29.794Z,99929.81
2023-01-12T11:13:59.958Z,99920.56
2023-01-12T11:16:29.147Z,99920.41
2023-01-12T11:19:05.192Z,99918.22
2023-01-12T11:21:36.953Z,99897.03
2023-01-12T11:24:39.002Z,99901.47
2023-01-12T11:27:16.531Z,99903.03
2023-01-12T11:30:18.713Z,99893.66
2023-01-12T11:33:08.872Z,99883.25
2023-01-12T11:35:58.319Z,99876.16
2023-01-12T11:38:38.922Z,99888.66
2023-01-12T11:41:10.120Z,99872.09
2023-01-12T11:43:56.207Z,99864.50
2023-01-12T11:46:41.048Z,99873.19
2023-01-12T11:49:41.022Z,99869.69
2023-01-12T11:52:10.721Z,99873.78
2023-01-12T11:54:39.159Z,99884.06
2023-01-12T11:57:43.341Z,99873.84
2023-01-12T12:00:16.146Z,99875.41
2023-01-12T12:03:11.722Z,99876.97
2023-01-12T12:06:07.772Z,99869.94
2023-01-12T12:08:50.749Z,99878.59
2023-01-12T12:11:42.001Z,99879.00
2023-01-12T12:14:30.951Z,99874.09
2023-01-12T12:17:20.528Z,99872.94
2023-01-12T12:19:58.964Z,99877.97
2023-01-12T12:22:58.372Z,99875.81
2023-01-12T12:25:54.760Z,99873.81
2023-01-12T12:28:48.413Z,99876.91
2023-01-12T12:31:44.315Z,99882.03
2023-01-12T12:34:10.695Z,99868.75
2023-01-12T12:36:55.398Z,99864.44
2023-01-12T12:39:44.815Z,99857.81
2023-01-12T12:42:48.673Z,99858.56
2023-01-12T12:45:22.165Z,99849.84
2023-01-12T12:48:23.922Z,99852.88
2023-01-12T12:51:03.934Z,99855.78
2023-01-12T12:53:43.607Z,99850.63
2023-01-12T12:56:16.723Z,99855.22
2023-01-12T12:58:49.977Z,99853.38
2023-01-12T13:01:25.462Z,99846.31
2023-01-12T13:03:55.141Z,99855.72
2023-01-12T13:06:22.912Z,99855.78
2023-01-12T13:08:52.515Z,99857.31
2023-01-12T13:11:20.029Z,99860.47
2023-01-12T13:14:05.959Z,99853.91
2023-01-12T13:16:32.531Z,99848.72
2023-01-12T13:18:58.928Z,99850.25
2023-01-12T13:21:57.839Z,99851.75
2023-01-12T13:24:41.918Z,99851.09
2023-01-12T13:27:46.016Z,99858.84
2023-01-12T13:30:52.463Z,99855.78
2023-01-12T13:33:26.573Z,99855.38
2023-01-12T13:35:53.022Z,99853.38
2023-01-12T13:38:38.922Z,99868.00
2023-01-12T13:41:46.760Z,99862.91
2023-01-12T13:44:27.280Z,99864.84
2023-01-12T13:47:03.958Z,99862.25
2023-01-12T13:49:33.883Z,99853.19
2023-01-12T13:52:03.965Z,99864.53
2023-01-12T13:54:31.628Z,99869.22
2023-01-12T13:57:06.650Z,99862.19
2023-01-12T13:59:34.766Z,99863.75
2023-01-12T14:02:01.454Z,99860.53
2023-01-12T14:04:46.496Z,99859.81
2023-01-12T14:07:20.579Z,99853.91
2023-01-12T14:10:00.855Z,99855.84
2023-01-12T14:12:57.027Z,99859.38
2023-01-12T14:16:00.816Z,99862.28
2023-01-12T14:18:40.219Z,99864.97
2023-01-12T14:21:19.744Z,99872.03
2023-01-12T14:23:46.156Z,99873.19
2023-01-12T14:26:22.205Z,99876.63
2023-01-12T14:28:51.186Z,99866.00
2023-01-12T14:31:30.388Z,99878.16
2023-01-12T14:33:59.421Z,99881.31
2023-01-12T14:36:29.463Z,99877.44
2023-01-12T14:38:59.164Z,99882.53
2023-01-12T14:41:47.023Z,99884.50
2023-01-12T14:44:39.550Z,99884.13
2023-01-12T14:47:06.887Z,99882.59
2023-01-12T14:49:35.889Z,99880.22
2023-01-12T14:52:22.040Z,99881.38
2023-01-12T14:54:48.593Z,99879.34
2023-01-12T14:57:36.226Z,99889.59
2023-01-12T15:00:05.752Z,99882.59
2023-01-12T15:02:35.134Z,99891.09
2023-01-12T15:05:10.752Z,99882.06
2023-01-12T15:07:41.801Z,99883.63
2023-01-12T15:10:14.221Z,99887.22
2023-01-12T15:12:45.458Z,99895.06
2023-01-12T15:15:19.666Z,99902.94
2023-01-12T15:18:05.200Z,99904.34
2023-01-12T15:20:59.173Z,99903.97
2023-01-12T15:23:55.393Z,99903.94
2023-01-12T15:26:22.150Z,99901.13
2023-01-12T15:28:49.416Z,99897.16
2023-01-12T15:31:27.966Z,99898.75
2023-01-12T15:33:56.079Z,99894.78
2023-01-12T15:36:22.788Z,99893.34
2023-01-12T15:38:49.439Z,99895.66
2023-01-12T15:41:43.217Z,99900.03
2023-01-12T15:44:17.985Z,99893.34
2023-01-12T15:46:44.817Z,99899.88
2023-01-12T15:49:15.587Z,99894.13
2023-01-12T15:51:51.701Z,99905.00
2023-01-12T15:54:20.196Z,99898.25
2023-01-12T15:56:47.964Z,99897.03
2023-01-12T15:59:14.765Z,99896.69
2023-01-12T16:01:46.769Z,99904.09
2023-01-12T16:04:42.070Z,99899.03
2023-01-12T16:07:05.435Z,99897.81
2023-01-12T16:09:32.738Z,99898.59
2023-01-12T16:11:59.447Z,99900.97
2023-01-12T16:14:26.173Z,99902.16
2023-01-12T16:16:52.839Z,99903.34
2023-01-12T16:19:21.641Z,99890.91
2023-01-12T16:21:48.227Z,99896.31
2023-01-12T16:24:15.161Z,99903.78
2023-01-12T16:26:41.654Z,99901.13
2023-01-12T16:29:08.596Z,99900.53
2023-01-12T16:31:38.101Z,99885.81
2023-01-12T16:34:05.871Z,99903.72
2023-01-12T16:36:33.540Z,99904.94
2023-01-12T16:39:00.365Z,99902.63
2023-01-12T16:41:26.890Z,99901.59
2023-01-12T16:43:54.517Z,99903.84
2023-01-12T16:46:21.088Z,99910.06
2023-01-12T16:48:47.621Z,99894.00
2023-01-12T16:51:15.962Z,99886.22
2023-01-12T16:53:42.976Z,99901.41
2023-01-12T16:56:14.974Z,99890.13
2023-01-12T16:58:47.681Z,99894.06
2023-01-12T17:01:18.068Z,99890.84
2023-01-12T17:03:44.958Z,99899.34
2023-01-12T17:06:15.261Z,99897.69
2023-01-12T17:08:41.778Z,99893.06
2023-01-12T17:11:10.698Z,99893.50
2023-01-12T17:13:37.855Z,99879.75
2023-01-12T17:16:10.357Z,99889.94
2023-01-12T17:18:38.682Z,99884.47
2023-01-12T17:21:09.272Z,99886.84
2023-01-12T17:23:36.250Z,99885.16
2023-01-12T17:26:04.312Z,99889.06
2023-01-12T17:28:31.424Z,99885.59
2023-01-12T17:30:58.197Z,99883.66
2023-01-12T17:33:25.012Z,99882.56
2023-01-12T17:35:51.671Z,99879.09
2023-01-12T17:38:18.375Z,99883.38
2023-01-12T17:40:44.898Z,99870.06
2023-01-12T17:43:14.584Z,99878.19
2023-01-12T17:45:42.719Z,99872.81
2023-01-12T17:48:11.893Z,99870.84
2023-01-12T17:50:40.384Z,99873.53
2023-01-12T17:53:09.303Z,99871.16
2023-01-12T17:55:43.534Z,99871.28
2023-01-12T17:58:14.433Z,99861.88
2023-01-12T18:00:40.935Z,99868.16
2023-01-12T18:03:07.610Z,99863.56
2023-01-12T18:05:34.235Z,99862.28
2023-01-12T18:08:00.713Z,99852.13
2023-01-12T18:10:30.176Z,99855.22
2023-01-12T18:12:56.685Z,99854.06
2023-01-12T18:15:23.945Z,99845.47
2023-01-12T18:17:50.559Z,99840.09
2023-01-12T18:20:17.080Z,99837.66
2023-01-12T18:22:43.672Z,99842.84
2023-01-12T18:25:10.355Z,99849.09
2023-01-12T18:27:36.853Z,99842.44
2023-01-12T18:30:03.679Z,99838.97
2023-01-12T18:32:30.410Z,99833.88
2023-01-12T18:34:58.104Z,99829.53
2023-01-12T18:37:24.661Z,99826.03
2023-01-12T18:39:51.178Z,99832.25
2023-01-12T18:42:36.217Z,99826.03
2023-01-12T18:45:04.515Z,99819.75
2023-01-12T18:47:50.047Z,99822.50
2023-01-12T18:50:35.573Z,99820.19
2023-01-12T18:53:21.079Z,99812.75
2023-01-12T18:55:48.446Z,99817.50
2023-01-12T18:58:14.948Z,99818.66
2023-01-12T19:00:41.721Z,99812.28
2023-01-12T19:03:08.559Z,99806.38
2023-01-12T19:05:42.280Z,99804.53
2023-01-12T19:08:27.837Z,99806.75
2023-01-12T19:10:55.067Z,99803.78
2023-01-12T19:13:40.416Z,99801.41
2023-01-12T19:16:26.122Z,99805.78
2023-01-12T19:18:53.454Z,99799.81
2023-01-12T19:21:38.578Z,99797.53
2023-01-12T19:24:23.710Z,99796.78
2023-01-12T19:27:09.196Z,99785.84
2023-01-12T19:29:35.859Z,99784.69
2023-01-12T19:32:02.900Z,99793.63
2023-01-12T19:34:29.656Z,99789.44
2023-01-12T19:36:56.184Z,99783.13
2023-01-12T19:39:39.314Z,99790.16
2023-01-12T19:42:25.432Z,99792.19
2023-01-12T19:44:51.830Z,99789.81
2023-01-12T19:47:18.262Z,99784.38
2023-01-12T19:49:44.732Z,99776.16
2023-01-12T19:52:11.202Z,99776.19
2023-01-12T19:54:37.716Z,99768.66
2023-01-12T19:57:04.187Z,99773.03
2023-01-12T19:59:31.028Z,99772.97
2023-01-12T20:01:57.552Z,99770.19
2023-01-12T20:04:23.984Z,99769.81
2023-01-12T20:06:53.127Z,99766.25
2023-01-12T20:09:19.792Z,99767.81
2023-01-12T20:11:52.778Z,99763.16
2023-01-12T20:14:19.512Z,99764.66
2023-01-12T20:16:46.743Z,99757.34
2023-01-12T20:19:14.004Z,99761.66
2023-01-12T20:21:40.732Z,99759.25
2023-01-12T20:24:07.395Z,99755.72
2023-01-12T20:26:33.872Z,99759.59
2023-01-12T20:29:00.324Z,99758.50
2023-01-12T20:31:26.830Z,99756.13
2023-01-12T20:33:53.449Z,99756.00
2023-01-12T20:36:20.370Z,99754.38
2023-01-12T20:38:47.376Z,99754.94
2023-01-12T20:41:13.911Z,99760.78
2023-01-12T20:43:40.475Z,99754.38
2023-01-12T20:46:11.755Z,99752.50
2023-01-12T20:48:43.804Z,99754.88
2023-01-12T20:51:12.854Z,99754.88
2023-01-12T20:53:39.630Z,99749.72
2023-01-12T20:56:06.381Z,99752.13
2023-01-12T20:58:32.991Z,99748.53
2023-01-12T21:01:00.329Z,99755.25
2023-01-12T21:03:27.598Z,99749.34
2023-01-12T21:05:55.076Z,99752.88
2023-01-12T21:08:21.526Z,99752.44
2023-01-12T21:10:51.066Z,99741.06
2023-01-12T21:13:18.732Z,99740.78
2023-01-12T21:15:45.383Z,99741.81
2023-01-12T21:18:12.400Z,99735.91
2023-01-12T21:20:43.010Z,99737.97
2023-01-12T21:23:09.697Z,99730.44
2023-01-12T21:25:41.481Z,99720.75
2023-01-12T21:28:07.837Z,99731.69
2023-01-12T21:30:35.005Z,99725.34
2023-01-12T21:33:01.484Z,99725.72
2023-01-12T21:35:27.958Z,99715.59
2023-01-12T21:37:54.397Z,99715.59
2023-01-12T21:40:27.824Z,99718.31
2023-01-12T21:43:09.568Z,99712.19
2023-01-12T21:45:39.878Z,99711.75
2023-01-12T21:48:07.189Z,99716.97
2023-01-12T21:50:34.005Z,99720.09
2023-01-12T21:53:02.727Z,99703.59
2023-01-12T21:55:29.871Z,99707.16
2023-01-12T21:57:56.347Z,99704.06
2023-01-12T22:00:23.335Z,99702.44
2023-01-12T22:02:51.135Z,99705.47
2023-01-12T22:05:18.260Z,99709.06
2023-01-12T22:07:45.118Z,99694.34
2023-01-12T22:10:20.918Z,99695.03
2023-01-12T22:12:55.589Z,99689.63
2023-01-12T22:15:23.384Z,99685.72
2023-01-12T22:17:51.221Z,99684.84
2023-01-12T22:20:18.288Z,99682.09
2023-01-12T22:22:44.950Z,99679.84
2023-01-12T22:25:13.904Z,99677.41
2023-01-12T22:27:44.262Z,99674.66
2023-01-12T22:30:13.708Z,99672.84
2023-01-12T22:32:41.330Z,99669.31
2023-01-12T22:35:08.730Z,99664.59
2023-01-12T22:37:36.464Z,99667.38
2023-01-12T22:40:04.804Z,99665.03
2023-01-12T22:42:49.835Z,99666.91
2023-01-12T22:45:16.325Z,99672.38
2023-01-12T22:47:47.946Z,99660.31
2023-01-12T22:50:14.865Z,99671.22
2023-01-12T22:52:41.730Z,99664.97
2023-01-12T22:55:08.624Z,99671.22
2023-01-12T22:57:35.261Z,99676.06
2023-01-12T23:00:01.730Z,99656.41
2023-01-12T23:02:47.881Z,99670.06
2023-01-12T23:05:14.463Z,99668.13
2023-01-12T23:07:40.926Z,99661.00
2023-01-12T23:10:08.444Z,99657.66
2023-01-12T23:12:34.960Z,99664.22
2023-01-12T23:15:01.405Z,99661.44
2023-01-12T23:17:27.979Z,99673.63
2023-01-12T23:19:54.445Z,99671.25
2023-01-12T23:22:21.453Z,99662.69
2023-01-12T23:24:48.315Z,99679.38
2023-01-12T23:27:14.835Z,99670.88
2023-01-12T23:29:41.354Z,99662.28
2023-01-12T23:32:07.953Z,99665.03
2023-01-12T23:34:34.405Z,99666.59
2023-01-12T23:37:00.864Z,99662.22
2023-01-12T23:39:27.345Z,99666.91
2023-01-12T23:41:53.777Z,99676.78
2023-01-12T23:44:20.334Z,99677.66
2023-01-12T23:46:46.903Z,99670.06
2023-01-12T23:49:13.367Z,99663.03
2023-01-12T23:51:40.441Z,99679.44
2023-01-12T23:54:07.704Z,99672.31
2023-01-12T23:56:34.702Z,99671.22
2023-01-12T23:59:01.500Z,99672.75
